<?xml version="1.0" encoding="UTF-8" standalone="no" ?>
<gpx xmlns="http://www.topografix.com/GPX/1/1" xmlns:xsi="http://www.w3.org/2001/XMLSchema-instance" xsi:schemaLocation="http://www.topografix.com/GPX/1/1 http://www.topografix.com/GPX/1/1/gpx.xsd" version="1.1" creator="VisuGPX - https://www.visugpx.com">
  <metadata>
    <name>Mont des Alouettes</name>
    <desc><![CDATA[Un des plus beaux sites de Vendée, et sans doute un des dénivelés parmi les plus importants, près de 180m! Un excellent belvédère d'où la vue embrasse le Bas Bocage, et la ville des Herbiers dont l'urbanisation grimpe vers le Mont.
Pour les curieux: [url=https://www.visugpx.com/story/248/le-mont-des-alouettes]"Le Mont des Alouettes"[/url], et [url=https://www.visugpx.com/story/246/raphael-toussaint]"Raphaël Toussaint"[/url]


]]></desc>
  </metadata>
  <trk>
    <name><![CDATA[14786497-alou]]></name>
    <trkseg>
      <trkpt lat="46.89418" lon="-1.00821">
        <ele>228</ele>
        <time>2022-05-25T16:15:53Z</time>
      </trkpt>
      <trkpt lat="46.8944" lon="-1.009">
        <ele>228</ele>
        <time>2022-05-25T16:17:11Z</time>
      </trkpt>
      <trkpt lat="46.8948" lon="-1.01014">
        <ele>229</ele>
        <time>2022-05-25T16:19:08Z</time>
      </trkpt>
      <trkpt lat="46.89511" lon="-1.01079">
        <ele>228</ele>
        <time>2022-05-25T16:20:20Z</time>
      </trkpt>
      <trkpt lat="46.89559" lon="-1.01149">
        <ele>226</ele>
        <time>2022-05-25T16:21:50Z</time>
      </trkpt>
      <trkpt lat="46.89593" lon="-1.01291">
        <ele>219</ele>
        <time>2022-05-25T16:24:08Z</time>
      </trkpt>
      <trkpt lat="46.89627" lon="-1.0147">
        <ele>211</ele>
        <time>2022-05-25T16:26:57Z</time>
      </trkpt>
      <trkpt lat="46.89649" lon="-1.01479">
        <ele>211</ele>
        <time>2022-05-25T16:27:27Z</time>
      </trkpt>
      <trkpt lat="46.89782" lon="-1.01398">
        <ele>203</ele>
        <time>2022-05-25T16:30:40Z</time>
      </trkpt>
      <trkpt lat="46.89818" lon="-1.01337">
        <ele>197</ele>
        <time>2022-05-25T16:31:53Z</time>
      </trkpt>
      <trkpt lat="46.89879" lon="-1.01421">
        <ele>200</ele>
        <time>2022-05-25T16:33:45Z</time>
      </trkpt>
      <trkpt lat="46.89935" lon="-1.0151">
        <ele>198</ele>
        <time>2022-05-25T16:35:35Z</time>
      </trkpt>
      <trkpt lat="46.89962" lon="-1.01577">
        <ele>192</ele>
        <time>2022-05-25T16:36:46Z</time>
      </trkpt>
      <trkpt lat="46.89976" lon="-1.01683">
        <ele>189</ele>
        <time>2022-05-25T16:38:25Z</time>
      </trkpt>
      <trkpt lat="46.89987" lon="-1.01752">
        <ele>183</ele>
        <time>2022-05-25T16:39:29Z</time>
      </trkpt>
      <trkpt lat="46.90003" lon="-1.01771">
        <ele>179</ele>
        <time>2022-05-25T16:39:57Z</time>
      </trkpt>
      <trkpt lat="46.90053" lon="-1.01775">
        <ele>168</ele>
        <time>2022-05-25T16:41:04Z</time>
      </trkpt>
      <trkpt lat="46.90078" lon="-1.01779">
        <ele>162</ele>
        <time>2022-05-25T16:41:37Z</time>
      </trkpt>
      <trkpt lat="46.9009" lon="-1.01808">
        <ele>158</ele>
        <time>2022-05-25T16:42:08Z</time>
      </trkpt>
      <trkpt lat="46.90087" lon="-1.01826">
        <ele>158</ele>
        <time>2022-05-25T16:42:25Z</time>
      </trkpt>
      <trkpt lat="46.90121" lon="-1.01831">
        <ele>154</ele>
        <time>2022-05-25T16:43:11Z</time>
      </trkpt>
      <trkpt lat="46.90133" lon="-1.01869">
        <ele>154</ele>
        <time>2022-05-25T16:43:49Z</time>
      </trkpt>
      <trkpt lat="46.90168" lon="-1.01921">
        <ele>152</ele>
        <time>2022-05-25T16:44:55Z</time>
      </trkpt>
      <trkpt lat="46.90156" lon="-1.0195">
        <ele>155</ele>
        <time>2022-05-25T16:45:26Z</time>
      </trkpt>
      <trkpt lat="46.90077" lon="-1.01903">
        <ele>162</ele>
        <time>2022-05-25T16:47:20Z</time>
      </trkpt>
      <trkpt lat="46.90029" lon="-1.0188">
        <ele>167</ele>
        <time>2022-05-25T16:48:27Z</time>
      </trkpt>
      <trkpt lat="46.8994" lon="-1.01921">
        <ele>174</ele>
        <time>2022-05-25T16:50:32Z</time>
      </trkpt>
      <trkpt lat="46.89888" lon="-1.01909">
        <ele>178</ele>
        <time>2022-05-25T16:51:42Z</time>
      </trkpt>
      <trkpt lat="46.89847" lon="-1.01905">
        <ele>181</ele>
        <time>2022-05-25T16:52:37Z</time>
      </trkpt>
      <trkpt lat="46.89825" lon="-1.01912">
        <ele>182</ele>
        <time>2022-05-25T16:53:07Z</time>
      </trkpt>
      <trkpt lat="46.89802" lon="-1.01952">
        <ele>181</ele>
        <time>2022-05-25T16:53:55Z</time>
      </trkpt>
      <trkpt lat="46.89722" lon="-1.0201">
        <ele>179</ele>
        <time>2022-05-25T16:55:54Z</time>
      </trkpt>
      <trkpt lat="46.89667" lon="-1.02029">
        <ele>178</ele>
        <time>2022-05-25T16:57:09Z</time>
      </trkpt>
      <trkpt lat="46.89554" lon="-1.02094">
        <ele>181</ele>
        <time>2022-05-25T16:59:51Z</time>
      </trkpt>
      <trkpt lat="46.89454" lon="-1.0212">
        <ele>180</ele>
        <time>2022-05-25T17:02:07Z</time>
      </trkpt>
      <trkpt lat="46.89351" lon="-1.0215">
        <ele>173</ele>
        <time>2022-05-25T17:04:27Z</time>
      </trkpt>
      <trkpt lat="46.89268" lon="-1.02165">
        <ele>168</ele>
        <time>2022-05-25T17:06:19Z</time>
      </trkpt>
      <trkpt lat="46.89277" lon="-1.02275">
        <ele>168</ele>
        <time>2022-05-25T17:08:00Z</time>
      </trkpt>
      <trkpt lat="46.893" lon="-1.02381">
        <ele>168</ele>
        <time>2022-05-25T17:09:41Z</time>
      </trkpt>
      <trkpt lat="46.89302" lon="-1.02481">
        <ele>167</ele>
        <time>2022-05-25T17:11:12Z</time>
      </trkpt>
      <trkpt lat="46.89364" lon="-1.02639">
        <ele>167</ele>
        <time>2022-05-25T17:13:58Z</time>
      </trkpt>
      <trkpt lat="46.89405" lon="-1.02742">
        <ele>162</ele>
        <time>2022-05-25T17:15:47Z</time>
      </trkpt>
      <trkpt lat="46.8942" lon="-1.02909">
        <ele>154</ele>
        <time>2022-05-25T17:18:21Z</time>
      </trkpt>
      <trkpt lat="46.89494" lon="-1.02963">
        <ele>155</ele>
        <time>2022-05-25T17:20:11Z</time>
      </trkpt>
      <trkpt lat="46.89592" lon="-1.02936">
        <ele>159</ele>
        <time>2022-05-25T17:22:24Z</time>
      </trkpt>
      <trkpt lat="46.89615" lon="-1.02903">
        <ele>159</ele>
        <time>2022-05-25T17:23:07Z</time>
      </trkpt>
      <trkpt lat="46.89874" lon="-1.02939">
        <ele>155</ele>
        <time>2022-05-25T17:28:54Z</time>
      </trkpt>
      <trkpt lat="46.89942" lon="-1.03073">
        <ele>153</ele>
        <time>2022-05-25T17:31:26Z</time>
      </trkpt>
      <trkpt lat="46.90128" lon="-1.03013">
        <ele>147</ele>
        <time>2022-05-25T17:35:41Z</time>
      </trkpt>
      <trkpt lat="46.90226" lon="-1.03069">
        <ele>157</ele>
        <time>2022-05-25T17:38:01Z</time>
      </trkpt>
      <trkpt lat="46.90083" lon="-1.02717">
        <ele>158</ele>
        <time>2022-05-25T17:44:14Z</time>
      </trkpt>
      <trkpt lat="46.90173" lon="-1.02646">
        <ele>165</ele>
        <time>2022-05-25T17:46:31Z</time>
      </trkpt>
      <trkpt lat="46.9002" lon="-1.02401">
        <ele>169</ele>
        <time>2022-05-25T17:51:33Z</time>
      </trkpt>
      <trkpt lat="46.89964" lon="-1.02253">
        <ele>172</ele>
        <time>2022-05-25T17:54:08Z</time>
      </trkpt>
      <trkpt lat="46.89887" lon="-1.02122">
        <ele>175</ele>
        <time>2022-05-25T17:56:45Z</time>
      </trkpt>
      <trkpt lat="46.89822" lon="-1.02019">
        <ele>179</ele>
        <time>2022-05-25T17:58:53Z</time>
      </trkpt>
      <trkpt lat="46.89797" lon="-1.01944">
        <ele>181</ele>
        <time>2022-05-25T18:00:09Z</time>
      </trkpt>
      <trkpt lat="46.89824" lon="-1.01931">
        <ele>181</ele>
        <time>2022-05-25T18:00:47Z</time>
      </trkpt>
      <trkpt lat="46.89824" lon="-1.019">
        <ele>182</ele>
        <time>2022-05-25T18:01:15Z</time>
      </trkpt>
      <trkpt lat="46.89814" lon="-1.01871">
        <ele>185</ele>
        <time>2022-05-25T18:01:45Z</time>
      </trkpt>
      <trkpt lat="46.89816" lon="-1.01845">
        <ele>187</ele>
        <time>2022-05-25T18:02:09Z</time>
      </trkpt>
      <trkpt lat="46.89808" lon="-1.0183">
        <ele>189</ele>
        <time>2022-05-25T18:02:26Z</time>
      </trkpt>
      <trkpt lat="46.89784" lon="-1.01849">
        <ele>189</ele>
        <time>2022-05-25T18:03:03Z</time>
      </trkpt>
      <trkpt lat="46.89766" lon="-1.01854">
        <ele>190</ele>
        <time>2022-05-25T18:03:27Z</time>
      </trkpt>
      <trkpt lat="46.89756" lon="-1.01842">
        <ele>192</ele>
        <time>2022-05-25T18:03:44Z</time>
      </trkpt>
      <trkpt lat="46.89751" lon="-1.01812">
        <ele>195</ele>
        <time>2022-05-25T18:04:13Z</time>
      </trkpt>
      <trkpt lat="46.89738" lon="-1.0179">
        <ele>197</ele>
        <time>2022-05-25T18:04:39Z</time>
      </trkpt>
      <trkpt lat="46.89734" lon="-1.01771">
        <ele>199</ele>
        <time>2022-05-25T18:04:57Z</time>
      </trkpt>
      <trkpt lat="46.89794" lon="-1.01665">
        <ele>206</ele>
        <time>2022-05-25T18:07:03Z</time>
      </trkpt>
      <trkpt lat="46.89739" lon="-1.01614">
        <ele>208</ele>
        <time>2022-05-25T18:08:30Z</time>
      </trkpt>
      <trkpt lat="46.8969" lon="-1.01567">
        <ele>209</ele>
        <time>2022-05-25T18:09:48Z</time>
      </trkpt>
      <trkpt lat="46.8967" lon="-1.01529">
        <ele>210</ele>
        <time>2022-05-25T18:10:32Z</time>
      </trkpt>
      <trkpt lat="46.89645" lon="-1.01506">
        <ele>210</ele>
        <time>2022-05-25T18:11:11Z</time>
      </trkpt>
      <trkpt lat="46.89578" lon="-1.01459">
        <ele>211</ele>
        <time>2022-05-25T18:12:50Z</time>
      </trkpt>
      <trkpt lat="46.8955" lon="-1.01442">
        <ele>211</ele>
        <time>2022-05-25T18:13:31Z</time>
      </trkpt>
      <trkpt lat="46.89534" lon="-1.01418">
        <ele>212</ele>
        <time>2022-05-25T18:14:01Z</time>
      </trkpt>
      <trkpt lat="46.89524" lon="-1.01426">
        <ele>212</ele>
        <time>2022-05-25T18:14:16Z</time>
      </trkpt>
      <trkpt lat="46.8953" lon="-1.01459">
        <ele>210</ele>
        <time>2022-05-25T18:14:47Z</time>
      </trkpt>
      <trkpt lat="46.89509" lon="-1.015">
        <ele>206</ele>
        <time>2022-05-25T18:15:34Z</time>
      </trkpt>
      <trkpt lat="46.89475" lon="-1.01569">
        <ele>197</ele>
        <time>2022-05-25T18:16:52Z</time>
      </trkpt>
      <trkpt lat="46.8946" lon="-1.01562">
        <ele>196</ele>
        <time>2022-05-25T18:17:13Z</time>
      </trkpt>
      <trkpt lat="46.89434" lon="-1.01476">
        <ele>200</ele>
        <time>2022-05-25T18:18:39Z</time>
      </trkpt>
      <trkpt lat="46.89418" lon="-1.01466">
        <ele>200</ele>
        <time>2022-05-25T18:19:02Z</time>
      </trkpt>
      <trkpt lat="46.89391" lon="-1.01394">
        <ele>205</ele>
        <time>2022-05-25T18:20:17Z</time>
      </trkpt>
      <trkpt lat="46.89368" lon="-1.01275">
        <ele>211</ele>
        <time>2022-05-25T18:22:09Z</time>
      </trkpt>
      <trkpt lat="46.89382" lon="-1.01236">
        <ele>214</ele>
        <time>2022-05-25T18:22:50Z</time>
      </trkpt>
      <trkpt lat="46.89378" lon="-1.01202">
        <ele>216</ele>
        <time>2022-05-25T18:23:21Z</time>
      </trkpt>
      <trkpt lat="46.89369" lon="-1.01182">
        <ele>216</ele>
        <time>2022-05-25T18:23:43Z</time>
      </trkpt>
      <trkpt lat="46.89382" lon="-1.0114">
        <ele>219</ele>
        <time>2022-05-25T18:24:25Z</time>
      </trkpt>
      <trkpt lat="46.89357" lon="-1.01126">
        <ele>218</ele>
        <time>2022-05-25T18:25:01Z</time>
      </trkpt>
      <trkpt lat="46.89355" lon="-1.01105">
        <ele>218</ele>
        <time>2022-05-25T18:25:20Z</time>
      </trkpt>
      <trkpt lat="46.89342" lon="-1.0107">
        <ele>218</ele>
        <time>2022-05-25T18:25:56Z</time>
      </trkpt>
      <trkpt lat="46.89355" lon="-1.01015">
        <ele>221</ele>
        <time>2022-05-25T18:26:49Z</time>
      </trkpt>
      <trkpt lat="46.894" lon="-1.00963">
        <ele>226</ele>
        <time>2022-05-25T18:28:06Z</time>
      </trkpt>
      <trkpt lat="46.8939" lon="-1.0091">
        <ele>225</ele>
        <time>2022-05-25T18:28:56Z</time>
      </trkpt>
      <trkpt lat="46.89426" lon="-1.00869">
        <ele>228</ele>
        <time>2022-05-25T18:29:57Z</time>
      </trkpt>
      <trkpt lat="46.89428" lon="-1.00782">
        <ele>229</ele>
        <time>2022-05-25T18:31:16Z</time>
      </trkpt>
      <trkpt lat="46.89421" lon="-1.00752">
        <ele>229</ele>
        <time>2022-05-25T18:31:45Z</time>
      </trkpt>
      <trkpt lat="46.89395" lon="-1.00754">
        <ele>228</ele>
        <time>2022-05-25T18:32:20Z</time>
      </trkpt>
      <trkpt lat="46.89372" lon="-1.00735">
        <ele>226</ele>
        <time>2022-05-25T18:32:55Z</time>
      </trkpt>
      <trkpt lat="46.89357" lon="-1.00712">
        <ele>225</ele>
        <time>2022-05-25T18:33:24Z</time>
      </trkpt>
      <trkpt lat="46.89319" lon="-1.00725">
        <ele>222</ele>
        <time>2022-05-25T18:34:16Z</time>
      </trkpt>
      <trkpt lat="46.89286" lon="-1.00724">
        <ele>219</ele>
        <time>2022-05-25T18:35:00Z</time>
      </trkpt>
      <trkpt lat="46.89224" lon="-1.00701">
        <ele>212</ele>
        <time>2022-05-25T18:36:26Z</time>
      </trkpt>
      <trkpt lat="46.89229" lon="-1.00786">
        <ele>212</ele>
        <time>2022-05-25T18:37:43Z</time>
      </trkpt>
      <trkpt lat="46.89241" lon="-1.00847">
        <ele>210</ele>
        <time>2022-05-25T18:38:41Z</time>
      </trkpt>
      <trkpt lat="46.89254" lon="-1.00889">
        <ele>210</ele>
        <time>2022-05-25T18:39:23Z</time>
      </trkpt>
      <trkpt lat="46.89203" lon="-1.00912">
        <ele>201</ele>
        <time>2022-05-25T18:40:35Z</time>
      </trkpt>
      <trkpt lat="46.89108" lon="-1.00925">
        <ele>188</ele>
        <time>2022-05-25T18:42:42Z</time>
      </trkpt>
      <trkpt lat="46.89061" lon="-1.00913">
        <ele>184</ele>
        <time>2022-05-25T18:43:46Z</time>
      </trkpt>
      <trkpt lat="46.89018" lon="-1.00897">
        <ele>180</ele>
        <time>2022-05-25T18:44:45Z</time>
      </trkpt>
      <trkpt lat="46.8897" lon="-1.00885">
        <ele>178</ele>
        <time>2022-05-25T18:45:50Z</time>
      </trkpt>
      <trkpt lat="46.88937" lon="-1.00799">
        <ele>174</ele>
        <time>2022-05-25T18:47:20Z</time>
      </trkpt>
      <trkpt lat="46.88899" lon="-1.00816">
        <ele>173</ele>
        <time>2022-05-25T18:48:13Z</time>
      </trkpt>
      <trkpt lat="46.88859" lon="-1.00781">
        <ele>172</ele>
        <time>2022-05-25T18:49:15Z</time>
      </trkpt>
      <trkpt lat="46.88836" lon="-1.00725">
        <ele>170</ele>
        <time>2022-05-25T18:50:15Z</time>
      </trkpt>
      <trkpt lat="46.88822" lon="-1.00723">
        <ele>171</ele>
        <time>2022-05-25T18:50:33Z</time>
      </trkpt>
      <trkpt lat="46.88725" lon="-1.00581">
        <ele>172</ele>
        <time>2022-05-25T18:53:36Z</time>
      </trkpt>
      <trkpt lat="46.8872" lon="-1.00548">
        <ele>170</ele>
        <time>2022-05-25T18:54:07Z</time>
      </trkpt>
      <trkpt lat="46.88748" lon="-1.00504">
        <ele>167</ele>
        <time>2022-05-25T18:55:02Z</time>
      </trkpt>
      <trkpt lat="46.88778" lon="-1.00464">
        <ele>164</ele>
        <time>2022-05-25T18:55:56Z</time>
      </trkpt>
      <trkpt lat="46.88811" lon="-1.00515">
        <ele>164</ele>
        <time>2022-05-25T18:57:00Z</time>
      </trkpt>
      <trkpt lat="46.88858" lon="-1.00581">
        <ele>165</ele>
        <time>2022-05-25T18:58:27Z</time>
      </trkpt>
      <trkpt lat="46.8888" lon="-1.00636">
        <ele>167</ele>
        <time>2022-05-25T18:59:25Z</time>
      </trkpt>
      <trkpt lat="46.88897" lon="-1.0065">
        <ele>168</ele>
        <time>2022-05-25T18:59:51Z</time>
      </trkpt>
      <trkpt lat="46.88915" lon="-1.0069">
        <ele>169</ele>
        <time>2022-05-25T19:00:35Z</time>
      </trkpt>
      <trkpt lat="46.88928" lon="-1.00726">
        <ele>171</ele>
        <time>2022-05-25T19:01:12Z</time>
      </trkpt>
      <trkpt lat="46.89019" lon="-1.00683">
        <ele>182</ele>
        <time>2022-05-25T19:03:20Z</time>
      </trkpt>
      <trkpt lat="46.89064" lon="-1.00602">
        <ele>185</ele>
        <time>2022-05-25T19:04:55Z</time>
      </trkpt>
      <trkpt lat="46.89135" lon="-1.0053">
        <ele>191</ele>
        <time>2022-05-25T19:06:50Z</time>
      </trkpt>
      <trkpt lat="46.89174" lon="-1.00492">
        <ele>193</ele>
        <time>2022-05-25T19:07:53Z</time>
      </trkpt>
      <trkpt lat="46.89212" lon="-1.00469">
        <ele>196</ele>
        <time>2022-05-25T19:08:48Z</time>
      </trkpt>
      <trkpt lat="46.89243" lon="-1.00521">
        <ele>202</ele>
        <time>2022-05-25T19:09:51Z</time>
      </trkpt>
      <trkpt lat="46.89252" lon="-1.00572">
        <ele>208</ele>
        <time>2022-05-25T19:10:39Z</time>
      </trkpt>
      <trkpt lat="46.89297" lon="-1.00615">
        <ele>215</ele>
        <time>2022-05-25T19:11:50Z</time>
      </trkpt>
      <trkpt lat="46.89332" lon="-1.00647">
        <ele>220</ele>
        <time>2022-05-25T19:12:45Z</time>
      </trkpt>
      <trkpt lat="46.89418" lon="-1.00821">
        <ele>228</ele>
        <time>2022-05-25T19:16:01Z</time>
      </trkpt>
      <trkpt lat="46.89418" lon="-1.00821">
        <ele>228</ele>
        <time>2022-05-25T19:16:01Z</time>
      </trkpt>
    </trkseg>
  </trk>
</gpx>